This is the latest recevied weather packets stored in our database for station/object NR0Q. If no packets are shown the sender has not sent any weather packets the latest 10 day(s).
| Time | Temp. | Humidity | Pressure | Rain* | Wind** | Luminosity | Snow |
|---|---|---|---|---|---|---|---|
| 1777637701 | 10.56° C | 81% | 0 hPa | 0 mm | - | - | - |
| 1777636801 | 10° C | 82% | 0 hPa | 0 mm | - | - | - |
| 1777635901 | 10° C | 82% | 0 hPa | 0 mm | - | - | - |
| 1777635001 | 10° C | 83% | 0 hPa | 0 mm | - | - | - |
| 1777634101 | 10° C | 82% | 0 hPa | 0 mm | - | - | - |
| 1777633201 | 10° C | 82% | 1018.6 hPa | 0 mm | - | - | - |
| 1777632301 | 10° C | 82% | 0 hPa | 0 mm | - | - | - |
| 1777631401 | 10.56° C | 81% | 1018.6 hPa | 0 mm | - | - | - |
| 1777630501 | 10.56° C | 80% | 1018.6 hPa | 0 mm | - | - | - |
| 1777629601 | 11.11° C | 79% | 0 hPa | 0 mm | - | - | - |
| 1777628701 | 11.67° C | 77% | 1018.6 hPa | 0 mm | - | - | - |
| 1777627801 | 11.67° C | 76% | 1018.6 hPa | 0 mm | - | - | - |
| 1777626001 | 11.67° C | 74% | 1018.6 hPa | 0 mm | - | - | - |
| 1777625101 | 12.22° C | 73% | 1018.6 hPa | 0 mm | - | - | - |
| 1777624204 | 12.22° C | 71% | 1018.6 hPa | 0 mm | - | - | - |
| 1777623301 | 12.22° C | 71% | 1018.6 hPa | 0 mm | - | - | - |
| 1777622401 | 10.56° C | 79% | 1018.6 hPa | 0 mm | - | - | - |
| 1777621501 | 8.89° C | 85% | 1018.6 hPa | 0 mm | - | - | - |
| 1777620601 | 8.33° C | 94% | 1018.6 hPa | 0 mm | - | - | - |
| 1777619701 | 8.33° C | 93% | 0 hPa | 0 mm | - | - | - |
| 1777618801 | 8.33° C | 93% | 1018.6 hPa | 0 mm | - | - | - |
| 1777617901 | 8.33° C | 92% | 1018.6 hPa | 0 mm | - | - | - |
| 1777617001 | 8.89° C | 92% | 1018.6 hPa | 0 mm | - | - | - |
| 1777616101 | 8.89° C | 91% | 0 hPa | 0 mm | - | - | - |
| 1777615201 | 8.89° C | 90% | 1018.6 hPa | 0 mm | - | - | - |
* Rain latest hour (hover to see other rain measurements)
** Current wind speed in m/s (hover to see current wind gust speed)